Time;durP1;ratioP1;P1;durP2;ratioP2;P2;SDS_P1;SDS_P2;PMS_P1;PMS_P2;Temp;Humidity;BMP_temperature;BMP_pressure;BME280_temperature;BME280_humidity;BME280_pressure;Samples;Min_cycle;Max_cycle;Signal;HPM_P1;HPM_P2
2021/12/14 00:01:19;;;;;;;8.53;7.57;;;;;;;;;;4926242;29;20189;-74
2021/12/14 00:03:46;;;;;;;7.30;6.50;;;;;;;;;;4927756;29;20757;-74
2021/12/14 00:06:13;;;;;;;7.73;6.63;;;;;;;;;;4928251;29;20192;-74
2021/12/14 00:08:49;;;;;;;9.67;7.87;;;;;;;;;;4929697;29;20198;-74
2021/12/14 00:14:09;;;;;;;10.80;8.87;;;;;;;;;;4931836;29;20209;-74
2021/12/14 00:16:35;;;;;;;9.03;7.90;;;;;;;;;;4939563;29;20209;-74
2021/12/14 00:19:02;;;;;;;9.27;8.10;;;;;;;;;;4930584;29;20174;-74
2021/12/14 00:21:30;;;;;;;12.87;9.07;;;;;;;;;;4931910;29;20557;-74
2021/12/14 00:24:09;;;;;;;11.20;8.80;;;;;;;;;;4928867;29;20721;-74
2021/12/14 00:26:46;;;;;;;18.00;11.77;;;;;;;;;;4930751;29;20205;-74
2021/12/14 00:29:21;;;;;;;20.43;13.40;;;;;;;;;;4928483;29;20221;-74
2021/12/14 00:31:49;;;;;;;16.33;10.70;;;;;;;;;;4927737;29;20284;-74
2021/12/14 00:34:23;;;;;;;12.40;9.17;;;;;;;;;;4929351;29;20218;-74
2021/12/14 00:36:50;;;;;;;13.30;8.97;;;;;;;;;;4927475;29;20209;-74
2021/12/14 00:39:18;;;;;;;9.40;7.97;;;;;;;;;;4914289;29;20206;-73
2021/12/14 00:41:45;;;;;;;8.83;7.40;;;;;;;;;;4931271;29;20669;-74
2021/12/14 00:44:12;;;;;;;9.90;7.50;;;;;;;;;;4933657;29;20249;-74
2021/12/14 00:46:39;;;;;;;8.60;7.50;;;;;;;;;;4930625;29;20201;-74
2021/12/14 00:49:06;;;;;;;7.63;6.83;;;;;;;;;;4933015;29;20205;-74
2021/12/14 00:51:33;;;;;;;8.20;6.80;;;;;;;;;;4929554;29;20194;-74
2021/12/14 00:54:00;;;;;;;9.00;7.73;;;;;;;;;;4932827;29;20269;-75
2021/12/14 00:56:27;;;;;;;9.83;7.87;;;;;;;;;;4930556;29;20229;-74
2021/12/14 00:58:53;;;;;;;8.87;7.60;;;;;;;;;;4932731;29;20170;-74
2021/12/14 01:01:23;;;;;;;9.77;7.93;;;;;;;;;;4946283;28;20198;-74
2021/12/14 01:03:52;;;;;;;13.50;9.93;;;;;;;;;;4930381;29;20209;-74
2021/12/14 01:06:21;;;;;;;15.30;10.83;;;;;;;;;;4930596;29;21206;-74
2021/12/14 01:08:49;;;;;;;18.47;13.23;;;;;;;;;;4924564;29;20614;-75
2021/12/14 01:11:21;;;;;;;23.40;15.53;;;;;;;;;;4932739;29;20202;-74
2021/12/14 01:13:56;;;;;;;24.10;15.70;;;;;;;;;;4927190;29;20209;-75
2021/12/14 01:16:35;;;;;;;17.87;13.20;;;;;;;;;;4928725;29;20681;-74
2021/12/14 01:19:27;;;;;;;15.83;11.60;;;;;;;;;;4925958;29;20186;-73
2021/12/14 01:24:59;;;;;;;10.67;9.50;;;;;;;;;;4926896;29;20224;-75
2021/12/14 01:27:23;;;;;;;11.03;9.37;;;;;;;;;;4926959;29;20252;-73
2021/12/14 01:29:53;;;;;;;11.13;9.57;;;;;;;;;;4926594;29;20200;-73
2021/12/14 01:32:22;;;;;;;11.13;9.30;;;;;;;;;;4926046;29;20231;-73
2021/12/14 01:34:48;;;;;;;9.73;8.43;;;;;;;;;;4942562;28;20273;-75
2021/12/14 01:37:21;;;;;;;10.80;9.23;;;;;;;;;;4927143;29;20713;-75
2021/12/14 01:40:05;;;;;;;11.50;9.43;;;;;;;;;;4912944;29;20190;-75
2021/12/14 01:42:37;;;;;;;11.77;9.23;;;;;;;;;;4940914;28;20288;-74
2021/12/14 01:45:13;;;;;;;10.27;8.60;;;;;;;;;;4930864;29;20182;-75
2021/12/14 01:47:45;;;;;;;11.30;9.10;;;;;;;;;;4925170;29;20185;-75
2021/12/14 01:50:40;;;;;;;11.27;9.37;;;;;;;;;;4923316;29;20198;-75
2021/12/14 01:53:20;;;;;;;10.40;8.80;;;;;;;;;;4926036;29;20202;-75
2021/12/14 01:55:52;;;;;;;10.47;8.53;;;;;;;;;;4925688;29;20221;-75
2021/12/14 01:58:20;;;;;;;11.53;9.00;;;;;;;;;;4947572;28;20220;-75
2021/12/14 02:00:53;;;;;;;13.90;9.90;;;;;;;;;;4928491;29;20209;-74
2021/12/14 02:03:19;;;;;;;13.10;9.90;;;;;;;;;;4940062;28;20252;-75
2021/12/14 02:05:47;;;;;;;11.67;9.80;;;;;;;;;;4931983;29;20245;-74
2021/12/14 02:08:22;;;;;;;12.63;10.17;;;;;;;;;;4927395;29;20190;-74
2021/12/14 02:10:51;;;;;;;13.83;9.67;;;;;;;;;;4930169;29;20201;-75
2021/12/14 02:13:25;;;;;;;11.53;9.73;;;;;;;;;;4922981;29;20225;-74
2021/12/14 02:15:52;;;;;;;11.80;9.47;;;;;;;;;;4946461;28;20631;-75
2021/12/14 02:18:23;;;;;;;16.50;11.43;;;;;;;;;;4946187;29;20214;-74
2021/12/14 02:21:00;;;;;;;14.17;11.07;;;;;;;;;;4928212;29;20190;-74
2021/12/14 02:23:27;;;;;;;14.03;10.90;;;;;;;;;;4925320;29;20225;-73
2021/12/14 02:25:55;;;;;;;14.13;10.50;;;;;;;;;;4925224;29;20201;-75
2021/12/14 02:28:22;;;;;;;15.80;11.80;;;;;;;;;;4926378;29;20198;-75
2021/12/14 02:30:52;;;;;;;13.80;11.20;;;;;;;;;;4924619;29;20205;-74
2021/12/14 02:33:26;;;;;;;16.87;12.50;;;;;;;;;;4927086;29;20213;-75
2021/12/14 02:35:53;;;;;;;17.93;13.13;;;;;;;;;;4937359;29;20297;-75
2021/12/14 02:38:21;;;;;;;17.53;13.87;;;;;;;;;;4926549;29;20661;-75
2021/12/14 02:40:53;;;;;;;14.40;11.27;;;;;;;;;;4910687;29;20593;-75
2021/12/14 02:43:28;;;;;;;15.53;12.40;;;;;;;;;;4930727;29;20658;-75
2021/12/14 02:46:01;;;;;;;15.30;12.00;;;;;;;;;;4926798;29;20681;-75
2021/12/14 02:48:27;;;;;;;15.47;11.90;;;;;;;;;;4940075;28;20201;-74
2021/12/14 02:50:53;;;;;;;13.90;11.33;;;;;;;;;;4925357;29;20245;-74
2021/12/14 02:53:20;;;;;;;17.90;13.93;;;;;;;;;;4903109;29;20221;-75
2021/12/14 02:55:46;;;;;;;18.20;14.10;;;;;;;;;;4926351;29;20762;-75
2021/12/14 02:58:12;;;;;;;15.70;12.47;;;;;;;;;;4927224;29;20182;-75
2021/12/14 03:00:44;;;;;;;18.80;14.47;;;;;;;;;;4924584;29;20193;-75
2021/12/14 03:03:11;;;;;;;19.53;13.90;;;;;;;;;;4927437;29;20237;-75
2021/12/14 03:05:41;;;;;;;21.17;15.40;;;;;;;;;;4926219;29;20185;-75
2021/12/14 03:08:13;;;;;;;20.50;15.20;;;;;;;;;;4925353;29;20189;-75
2021/12/14 03:10:54;;;;;;;22.13;15.20;;;;;;;;;;4929827;29;20684;-75
2021/12/14 03:13:21;;;;;;;18.30;14.50;;;;;;;;;;4913161;29;20207;-74
2021/12/14 03:15:52;;;;;;;20.87;15.67;;;;;;;;;;4926474;29;20308;-75
2021/12/14 03:18:21;;;;;;;23.03;16.40;;;;;;;;;;4925285;29;20217;-75
2021/12/14 03:20:49;;;;;;;30.23;19.70;;;;;;;;;;4929689;29;20545;-75
2021/12/14 03:23:18;;;;;;;28.03;18.70;;;;;;;;;;4926906;29;20685;-75
2021/12/14 03:25:47;;;;;;;31.27;20.20;;;;;;;;;;4943360;28;20186;-75
2021/12/14 03:28:15;;;;;;;31.73;20.80;;;;;;;;;;4925892;29;20187;-75
2021/12/14 03:30:42;;;;;;;26.83;18.63;;;;;;;;;;4929252;29;20201;-75
2021/12/14 03:33:17;;;;;;;32.57;21.87;;;;;;;;;;4930337;29;20213;-75
2021/12/14 03:35:51;;;;;;;33.07;22.10;;;;;;;;;;4944684;28;20592;-74
2021/12/14 03:38:19;;;;;;;32.53;21.07;;;;;;;;;;4943303;28;20182;-75
2021/12/14 03:40:53;;;;;;;27.13;19.40;;;;;;;;;;4918701;29;20192;-74
2021/12/14 03:43:19;;;;;;;28.50;19.43;;;;;;;;;;4914877;29;20905;-75
2021/12/14 03:45:46;;;;;;;29.93;19.73;;;;;;;;;;4915541;29;20281;-75
2021/12/14 03:48:13;;;;;;;32.63;21.10;;;;;;;;;;4934725;29;20205;-75
2021/12/14 03:50:41;;;;;;;30.03;20.93;;;;;;;;;;4931489;29;20190;-74
2021/12/14 03:53:10;;;;;;;30.00;20.30;;;;;;;;;;4916830;29;20205;-74
2021/12/14 03:55:42;;;;;;;27.20;19.90;;;;;;;;;;4926443;29;20225;-75
2021/12/14 03:58:10;;;;;;;27.63;19.10;;;;;;;;;;4921776;29;20260;-75
2021/12/14 04:00:42;;;;;;;27.67;19.70;;;;;;;;;;4947733;28;20205;-75
2021/12/14 04:03:11;;;;;;;26.43;18.93;;;;;;;;;;4933318;29;20301;-74
2021/12/14 04:05:47;;;;;;;26.43;18.37;;;;;;;;;;4933872;29;20249;-75
2021/12/14 04:08:16;;;;;;;26.43;18.10;;;;;;;;;;4933341;29;20561;-75
2021/12/14 04:10:44;;;;;;;26.27;18.93;;;;;;;;;;4934129;29;20186;-75
2021/12/14 04:13:14;;;;;;;24.70;17.73;;;;;;;;;;4944376;29;20222;-75
2021/12/14 04:15:41;;;;;;;24.00;17.47;;;;;;;;;;4920169;29;20205;-75
2021/12/14 04:18:09;;;;;;;29.20;17.87;;;;;;;;;;4932102;29;20212;-75
2021/12/14 04:20:37;;;;;;;24.50;17.30;;;;;;;;;;4934511;29;20245;-75
2021/12/14 04:23:13;;;;;;;22.20;17.10;;;;;;;;;;4933421;29;20586;-75
2021/12/14 04:25:40;;;;;;;22.83;17.27;;;;;;;;;;4914697;29;20371;-75
2021/12/14 04:28:08;;;;;;;22.57;15.73;;;;;;;;;;4946539;28;20196;-73
2021/12/14 04:30:35;;;;;;;24.73;18.00;;;;;;;;;;4934067;29;20182;-75
2021/12/14 04:33:04;;;;;;;24.30;17.00;;;;;;;;;;4945137;28;20244;-75
2021/12/14 04:35:32;;;;;;;19.87;15.60;;;;;;;;;;4931345;29;20174;-76
2021/12/14 04:38:05;;;;;;;21.70;15.27;;;;;;;;;;4915980;29;20182;-73
2021/12/14 04:54:07;;;;;;;19.67;15.53;;;;;;;;;;4925316;28;20268;-75
2021/12/14 04:56:39;;;;;;;21.53;16.07;;;;;;;;;;4911085;29;20402;-79
2021/12/14 04:59:20;;;;;;;28.90;18.30;;;;;;;;;;4902160;29;20186;-76
2021/12/14 05:01:48;;;;;;;22.70;17.03;;;;;;;;;;4930002;29;20190;-74
2021/12/14 05:04:24;;;;;;;23.13;17.10;;;;;;;;;;4923923;29;20193;-82
2021/12/14 05:07:02;;;;;;;20.63;14.90;;;;;;;;;;4911622;29;20257;-82
2021/12/14 05:09:31;;;;;;;20.73;15.60;;;;;;;;;;4896447;29;20202;-77
2021/12/14 05:12:20;;;;;;;22.17;15.50;;;;;;;;;;4931101;29;20308;-79
2021/12/14 05:14:53;;;;;;;21.70;15.97;;;;;;;;;;4933367;29;20717;-77
2021/12/14 05:17:21;;;;;;;22.13;16.73;;;;;;;;;;4929766;29;20240;-78
2021/12/14 05:19:49;;;;;;;23.53;16.07;;;;;;;;;;4945620;28;20293;-76
2021/12/14 05:22:18;;;;;;;27.47;19.43;;;;;;;;;;4927376;29;20226;-76
2021/12/14 05:24:51;;;;;;;26.07;18.73;;;;;;;;;;4933372;29;20182;-75
2021/12/14 05:27:38;;;;;;;27.63;20.33;;;;;;;;;;4948186;28;20678;-76
2021/12/14 05:30:10;;;;;;;28.87;20.93;;;;;;;;;;4945088;28;20198;-76
2021/12/14 05:32:46;;;;;;;29.93;20.10;;;;;;;;;;4927832;29;20282;-76
2021/12/14 05:35:18;;;;;;;29.93;21.07;;;;;;;;;;4942445;28;20586;-75
2021/12/14 05:37:52;;;;;;;29.07;21.80;;;;;;;;;;4925904;29;20214;-76
2021/12/14 05:40:44;;;;;;;26.63;20.83;;;;;;;;;;4911058;29;20188;-76
2021/12/14 05:43:14;;;;;;;28.93;19.87;;;;;;;;;;4927021;29;20713;-75
2021/12/14 05:46:00;;;;;;;29.97;21.17;;;;;;;;;;4927014;29;20407;-76
2021/12/14 05:48:31;;;;;;;34.13;23.63;;;;;;;;;;4927658;29;20629;-76
2021/12/14 05:50:59;;;;;;;32.63;22.57;;;;;;;;;;4930249;29;20280;-75
2021/12/14 05:53:32;;;;;;;31.53;22.90;;;;;;;;;;4943709;28;20209;-75
2021/12/14 05:56:01;;;;;;;30.40;22.27;;;;;;;;;;4927336;29;20208;-76
2021/12/14 05:58:31;;;;;;;32.80;23.10;;;;;;;;;;4911532;29;20245;-76
2021/12/14 06:00:59;;;;;;;32.53;23.00;;;;;;;;;;4927755;29;20190;-76
2021/12/14 06:03:31;;;;;;;33.77;23.77;;;;;;;;;;4927381;29;20209;-76
2021/12/14 06:06:00;;;;;;;34.87;24.60;;;;;;;;;;4926980;29;20673;-76
2021/12/14 06:08:32;;;;;;;34.33;23.67;;;;;;;;;;4926766;29;20264;-76
2021/12/14 06:11:09;;;;;;;33.33;23.03;;;;;;;;;;4927583;29;20194;-74
2021/12/14 06:13:37;;;;;;;36.50;26.40;;;;;;;;;;4911767;29;20297;-76
2021/12/14 06:16:03;;;;;;;32.83;25.23;;;;;;;;;;4928391;29;20220;-74
2021/12/14 06:18:30;;;;;;;32.90;24.83;;;;;;;;;;4944257;28;20237;-77
2021/12/14 06:21:06;;;;;;;34.07;25.03;;;;;;;;;;4932010;29;20292;-76
2021/12/14 06:23:35;;;;;;;40.40;26.10;;;;;;;;;;4929393;29;20221;-75
2021/12/14 06:26:19;;;;;;;36.13;24.20;;;;;;;;;;4931039;29;20192;-75
2021/12/14 06:28:45;;;;;;;34.57;24.60;;;;;;;;;;4949226;29;20197;-75
2021/12/14 06:31:12;;;;;;;37.57;25.43;;;;;;;;;;4948265;29;20589;-77
2021/12/14 06:33:39;;;;;;;38.67;25.97;;;;;;;;;;4923658;29;20296;-77
2021/12/14 06:36:16;;;;;;;34.50;26.20;;;;;;;;;;4932865;29;20214;-76
2021/12/14 06:38:42;;;;;;;39.50;25.83;;;;;;;;;;4945989;29;20186;-75
2021/12/14 06:41:17;;;;;;;39.90;26.70;;;;;;;;;;4914350;29;20186;-75
2021/12/14 06:43:48;;;;;;;34.70;24.73;;;;;;;;;;4929278;29;20206;-76
2021/12/14 06:46:17;;;;;;;40.70;27.73;;;;;;;;;;4910769;29;20206;-75
2021/12/14 06:48:43;;;;;;;37.80;25.33;;;;;;;;;;4948378;29;20190;-76
2021/12/14 06:51:22;;;;;;;41.53;28.30;;;;;;;;;;4933765;29;20670;-76
2021/12/14 06:54:08;;;;;;;35.80;26.17;;;;;;;;;;4932762;29;20206;-76
2021/12/14 06:57:05;;;;;;;34.80;25.03;;;;;;;;;;4931998;29;20656;-76
2021/12/14 06:59:35;;;;;;;34.87;25.13;;;;;;;;;;4948589;29;20646;-76
2021/12/14 07:02:09;;;;;;;35.07;23.90;;;;;;;;;;4932747;29;20206;-76
2021/12/14 07:04:49;;;;;;;41.27;26.53;;;;;;;;;;4948627;29;20189;-76
2021/12/14 07:07:19;;;;;;;37.70;26.87;;;;;;;;;;4931122;29;20186;-76
2021/12/14 07:09:51;;;;;;;34.63;26.40;;;;;;;;;;4932808;29;20186;-76
2021/12/14 07:12:18;;;;;;;33.17;23.80;;;;;;;;;;4934030;29;20213;-75
2021/12/14 07:14:44;;;;;;;32.93;24.20;;;;;;;;;;4933678;29;20182;-76
2021/12/14 07:17:18;;;;;;;32.90;24.10;;;;;;;;;;4936039;29;20708;-76
2021/12/14 07:19:48;;;;;;;31.43;22.53;;;;;;;;;;4937626;29;20736;-73
2021/12/14 07:22:34;;;;;;;33.53;22.40;;;;;;;;;;4937267;29;20209;-74
2021/12/14 07:25:05;;;;;;;31.97;22.90;;;;;;;;;;4954052;29;20190;-75
2021/12/14 07:27:52;;;;;;;29.73;20.70;;;;;;;;;;4933867;29;20197;-73
2021/12/14 07:30:20;;;;;;;35.93;22.90;;;;;;;;;;4929517;29;20332;-75
2021/12/14 07:32:48;;;;;;;29.90;22.10;;;;;;;;;;4940574;28;20739;-76
2021/12/14 07:35:16;;;;;;;29.00;20.90;;;;;;;;;;4940059;29;20760;-77
2021/12/14 07:37:43;;;;;;;32.37;23.03;;;;;;;;;;4931042;29;20346;-76
2021/12/14 07:40:09;;;;;;;35.20;22.53;;;;;;;;;;4923618;29;20190;-76
2021/12/14 07:42:36;;;;;;;31.60;22.17;;;;;;;;;;4918784;29;20298;-76
2021/12/14 07:45:06;;;;;;;28.50;21.27;;;;;;;;;;4945164;29;20186;-77
2021/12/14 07:47:32;;;;;;;34.07;23.40;;;;;;;;;;4919133;29;20241;-77
2021/12/14 07:49:59;;;;;;;32.80;22.70;;;;;;;;;;4949906;29;20541;-77
2021/12/14 07:52:28;;;;;;;35.27;23.17;;;;;;;;;;4930419;28;20226;-76
2021/12/14 07:54:57;;;;;;;33.10;23.70;;;;;;;;;;4921072;29;20197;-77
2021/12/14 07:57:25;;;;;;;33.37;23.17;;;;;;;;;;4936131;29;20596;-77
2021/12/14 07:59:52;;;;;;;32.83;23.50;;;;;;;;;;4922934;29;20546;-77
2021/12/14 08:02:20;;;;;;;36.13;24.93;;;;;;;;;;4921375;29;20210;-77
2021/12/14 08:04:54;;;;;;;39.70;25.50;;;;;;;;;;4924316;29;20193;-77
2021/12/14 08:07:25;;;;;;;41.37;27.40;;;;;;;;;;4923255;29;20261;-77
2021/12/14 08:09:52;;;;;;;41.77;27.37;;;;;;;;;;4944130;29;20189;-77
2021/12/14 08:12:29;;;;;;;41.10;28.67;;;;;;;;;;4921792;29;20712;-77
2021/12/14 08:15:08;;;;;;;39.63;25.93;;;;;;;;;;4923334;29;20668;-77
2021/12/14 08:17:36;;;;;;;39.40;26.07;;;;;;;;;;4923650;29;20225;-77
2021/12/14 08:20:03;;;;;;;44.97;27.83;;;;;;;;;;4942564;28;20190;-77
2021/12/14 08:22:31;;;;;;;42.93;27.67;;;;;;;;;;4923327;29;20282;-77
2021/12/14 08:24:57;;;;;;;35.60;24.57;;;;;;;;;;4921606;29;20193;-76
2021/12/14 08:27:25;;;;;;;43.90;28.00;;;;;;;;;;4920039;29;20190;-77
2021/12/14 08:29:52;;;;;;;38.20;25.77;;;;;;;;;;4929433;29;20194;-77
2021/12/14 08:32:21;;;;;;;40.37;26.20;;;;;;;;;;4928180;29;20387;-77
2021/12/14 08:34:48;;;;;;;39.73;25.97;;;;;;;;;;4932650;29;20194;-77
2021/12/14 08:37:18;;;;;;;40.83;24.83;;;;;;;;;;4923158;29;20284;-77
2021/12/14 08:39:44;;;;;;;37.43;24.07;;;;;;;;;;4934019;29;20540;-79
2021/12/14 08:42:15;;;;;;;39.43;25.30;;;;;;;;;;4937515;29;20206;-80
2021/12/14 08:44:50;;;;;;;40.40;24.33;;;;;;;;;;4946179;29;20606;-78
2021/12/14 08:47:26;;;;;;;38.97;23.53;;;;;;;;;;4929865;29;20201;-77
2021/12/14 08:49:54;;;;;;;40.37;23.80;;;;;;;;;;4931087;29;20185;-77
2021/12/14 08:52:21;;;;;;;42.50;24.93;;;;;;;;;;4930509;29;20217;-77
2021/12/14 08:54:47;;;;;;;46.13;26.27;;;;;;;;;;4919485;29;20729;-77
2021/12/14 08:57:15;;;;;;;45.77;26.03;;;;;;;;;;4927702;29;20258;-77
2021/12/14 08:59:43;;;;;;;46.80;25.70;;;;;;;;;;4932427;29;20206;-77
2021/12/14 09:02:14;;;;;;;43.53;23.87;;;;;;;;;;4935003;29;20214;-77
2021/12/14 09:04:43;;;;;;;42.10;24.10;;;;;;;;;;4950344;29;20185;-77
2021/12/14 09:07:11;;;;;;;47.73;25.90;;;;;;;;;;4935153;29;20284;-77
2021/12/14 09:09:42;;;;;;;36.23;21.30;;;;;;;;;;4934592;29;20621;-77
2021/12/14 09:12:16;;;;;;;32.80;20.00;;;;;;;;;;4933957;29;20210;-76
2021/12/14 09:14:43;;;;;;;27.93;18.03;;;;;;;;;;4916640;29;20265;-77
2021/12/14 09:17:11;;;;;;;31.77;17.97;;;;;;;;;;4930673;29;20229;-77
2021/12/14 09:19:40;;;;;;;32.23;19.10;;;;;;;;;;4919843;29;20208;-76
2021/12/14 09:22:08;;;;;;;33.43;20.10;;;;;;;;;;4924297;29;20214;-77
2021/12/14 09:24:35;;;;;;;36.47;21.07;;;;;;;;;;4932925;29;20186;-77
2021/12/14 09:27:04;;;;;;;37.93;21.40;;;;;;;;;;4923874;29;20197;-77
2021/12/14 09:29:32;;;;;;;36.70;20.83;;;;;;;;;;4928889;29;20283;-77
2021/12/14 09:31:59;;;;;;;34.00;19.83;;;;;;;;;;4928598;29;20218;-77
2021/12/14 09:34:27;;;;;;;36.90;22.03;;;;;;;;;;4929307;29;20587;-77
2021/12/14 09:36:53;;;;;;;39.30;23.73;;;;;;;;;;4935376;29;20281;-77
2021/12/14 09:39:22;;;;;;;38.73;23.57;;;;;;;;;;4931807;29;20248;-77
2021/12/14 09:41:53;;;;;;;37.67;21.67;;;;;;;;;;4928380;29;20193;-77
2021/12/14 09:44:21;;;;;;;40.00;24.57;;;;;;;;;;4932827;29;20233;-77
2021/12/14 09:46:48;;;;;;;37.33;23.43;;;;;;;;;;4942328;29;20186;-77
2021/12/14 09:49:15;;;;;;;38.00;23.37;;;;;;;;;;4934850;29;20189;-77
2021/12/14 09:51:44;;;;;;;40.67;23.93;;;;;;;;;;4928145;29;20280;-77
2021/12/14 09:54:12;;;;;;;38.40;23.40;;;;;;;;;;4921776;29;20178;-77
2021/12/14 09:56:42;;;;;;;34.63;21.40;;;;;;;;;;4924031;29;20214;-77
2021/12/14 09:59:10;;;;;;;33.47;21.17;;;;;;;;;;4922762;29;20213;-77
2021/12/14 10:01:38;;;;;;;33.67;21.10;;;;;;;;;;4922574;29;20558;-77
2021/12/14 10:04:08;;;;;;;36.37;22.93;;;;;;;;;;4920856;29;20293;-77
2021/12/14 10:06:34;;;;;;;35.43;22.23;;;;;;;;;;4922940;29;20181;-77
2021/12/14 10:09:07;;;;;;;35.30;22.07;;;;;;;;;;4941605;29;20201;-77
2021/12/14 10:11:47;;;;;;;33.33;20.67;;;;;;;;;;4924992;29;20189;-77
2021/12/14 10:14:13;;;;;;;33.77;21.77;;;;;;;;;;4923150;29;20185;-77
2021/12/14 10:16:40;;;;;;;37.83;21.40;;;;;;;;;;4923679;29;20210;-77
2021/12/14 10:19:09;;;;;;;38.73;24.60;;;;;;;;;;4922736;29;20261;-77
2021/12/14 10:21:41;;;;;;;38.10;23.40;;;;;;;;;;4925699;29;20194;-77
2021/12/14 10:24:08;;;;;;;40.70;23.90;;;;;;;;;;4924364;29;20225;-77
2021/12/14 10:26:35;;;;;;;36.87;22.20;;;;;;;;;;4922029;29;20194;-77
2021/12/14 10:29:03;;;;;;;32.57;21.27;;;;;;;;;;4923760;29;20193;-77
2021/12/14 10:31:41;;;;;;;32.43;20.37;;;;;;;;;;4922167;29;20178;-77
2021/12/14 10:34:14;;;;;;;32.23;20.13;;;;;;;;;;4922466;29;20206;-77
2021/12/14 10:36:44;;;;;;;33.53;21.13;;;;;;;;;;4946847;29;20218;-77
2021/12/14 10:39:35;;;;;;;30.50;18.80;;;;;;;;;;4925085;29;20182;-77
2021/12/14 10:44:52;;;;;;;33.17;21.53;;;;;;;;;;4945943;29;20182;-77
2021/12/14 10:47:20;;;;;;;29.87;19.80;;;;;;;;;;4922525;29;20230;-77
2021/12/14 10:49:46;;;;;;;33.10;20.80;;;;;;;;;;4924170;29;20209;-77
2021/12/14 10:52:14;;;;;;;36.67;21.93;;;;;;;;;;4922669;29;20211;-77
2021/12/14 10:54:45;;;;;;;37.37;22.10;;;;;;;;;;4923950;29;20265;-77
2021/12/14 10:57:14;;;;;;;38.33;22.93;;;;;;;;;;4937671;29;20618;-77
2021/12/14 10:59:42;;;;;;;40.23;23.83;;;;;;;;;;4938037;29;20199;-77
2021/12/14 11:02:09;;;;;;;44.53;25.47;;;;;;;;;;4929397;29;20206;-77
2021/12/14 11:04:40;;;;;;;41.37;24.93;;;;;;;;;;4925141;29;20189;-77
2021/12/14 11:07:12;;;;;;;40.23;23.70;;;;;;;;;;4945230;29;20205;-77
2021/12/14 11:12:07;;;;;;;40.30;22.80;;;;;;;;;;4924365;29;20388;-77
2021/12/14 11:14:37;;;;;;;42.73;24.07;;;;;;;;;;4923571;29;20217;-77
2021/12/14 11:19:53;;;;;;;48.63;23.67;;;;;;;;;;4938197;29;20214;-83
2021/12/14 11:22:22;;;;;;;45.67;23.60;;;;;;;;;;4924203;29;20222;-77
2021/12/14 11:24:50;;;;;;;45.93;22.93;;;;;;;;;;4922456;29;20186;-77
2021/12/14 11:27:18;;;;;;;49.90;24.23;;;;;;;;;;4921955;29;20190;-76
2021/12/14 11:29:44;;;;;;;44.30;22.50;;;;;;;;;;4922633;29;20236;-76
2021/12/14 11:32:16;;;;;;;41.13;22.47;;;;;;;;;;4922698;29;20206;-76
2021/12/14 11:34:45;;;;;;;41.67;21.90;;;;;;;;;;4923536;29;20182;-77
2021/12/14 11:37:16;;;;;;;41.77;22.60;;;;;;;;;;4922192;29;20206;-76
2021/12/14 11:39:50;;;;;;;41.83;22.40;;;;;;;;;;4921869;29;20186;-76
2021/12/14 11:42:19;;;;;;;41.43;22.47;;;;;;;;;;4920915;29;20634;-77
2021/12/14 11:44:48;;;;;;;40.80;22.20;;;;;;;;;;4944633;29;20183;-77
2021/12/14 11:49:53;;;;;;;37.40;20.30;;;;;;;;;;4922169;29;20245;-76
2021/12/14 11:52:38;;;;;;;40.60;21.33;;;;;;;;;;4943772;28;20210;-76
2021/12/14 11:55:39;;;;;;;43.77;21.60;;;;;;;;;;4921163;29;20738;-76
2021/12/14 11:58:08;;;;;;;38.47;21.23;;;;;;;;;;4886646;29;20621;-76
2021/12/14 12:00:36;;;;;;;37.13;21.40;;;;;;;;;;4917188;29;20198;-77
2021/12/14 12:03:21;;;;;;;41.43;21.80;;;;;;;;;;4925738;29;20213;-76
2021/12/14 12:05:58;;;;;;;47.53;23.90;;;;;;;;;;4925748;29;20190;-77
2021/12/14 12:11:14;;;;;;;43.53;22.83;;;;;;;;;;4929385;29;20257;-79
2021/12/14 12:13:41;;;;;;;41.70;21.87;;;;;;;;;;4933353;29;20824;-80
2021/12/14 12:16:21;;;;;;;41.77;21.73;;;;;;;;;;4935878;29;20210;-79
2021/12/14 12:19:04;;;;;;;42.87;21.87;;;;;;;;;;4932858;29;20241;-79
2021/12/14 12:21:31;;;;;;;39.20;21.27;;;;;;;;;;4954143;29;20668;-79
2021/12/14 12:23:58;;;;;;;46.67;23.37;;;;;;;;;;4922777;29;20723;-79
2021/12/14 12:26:28;;;;;;;41.73;21.43;;;;;;;;;;4939785;29;20190;-80
2021/12/14 12:29:02;;;;;;;41.00;21.47;;;;;;;;;;4954098;29;20186;-80
2021/12/14 12:31:29;;;;;;;42.23;22.50;;;;;;;;;;4937210;29;20193;-80
2021/12/14 12:33:56;;;;;;;45.47;22.03;;;;;;;;;;4929965;29;20228;-80
2021/12/14 12:36:25;;;;;;;43.03;22.77;;;;;;;;;;4946749;29;20233;-80
2021/12/14 12:38:54;;;;;;;44.27;22.23;;;;;;;;;;4915300;29;20189;-81
2021/12/14 12:41:27;;;;;;;39.97;20.70;;;;;;;;;;4924819;29;20183;-81
2021/12/14 12:44:01;;;;;;;40.23;20.20;;;;;;;;;;4930543;29;20244;-79
2021/12/14 12:46:37;;;;;;;40.33;21.30;;;;;;;;;;4925669;29;20246;-82
2021/12/14 12:49:03;;;;;;;41.97;22.60;;;;;;;;;;4925633;29;20606;-82
2021/12/14 12:51:44;;;;;;;43.63;22.83;;;;;;;;;;4922392;29;20589;-80
2021/12/14 12:54:12;;;;;;;38.93;20.70;;;;;;;;;;4926757;29;20190;-82
2021/12/14 12:56:42;;;;;;;42.40;20.57;;;;;;;;;;4931465;29;20206;-79
2021/12/14 12:59:08;;;;;;;41.57;19.60;;;;;;;;;;4912065;29;20189;-79
2021/12/14 13:01:35;;;;;;;43.17;20.67;;;;;;;;;;4919773;29;20682;-80
2021/12/14 13:04:01;;;;;;;42.97;22.07;;;;;;;;;;4919596;29;20661;-82
2021/12/14 13:06:27;;;;;;;41.63;21.50;;;;;;;;;;4933858;29;20194;-79
2021/12/14 13:08:57;;;;;;;42.27;21.57;;;;;;;;;;4921400;29;20182;-82
2021/12/14 13:11:36;;;;;;;38.53;20.07;;;;;;;;;;4925578;29;20202;-80
2021/12/14 13:14:07;;;;;;;38.53;20.73;;;;;;;;;;4918962;29;20217;-80
2021/12/14 13:16:37;;;;;;;37.43;20.13;;;;;;;;;;4932765;29;20664;-80
2021/12/14 13:19:10;;;;;;;38.17;20.43;;;;;;;;;;4921396;29;20194;-79
2021/12/14 13:21:36;;;;;;;38.97;20.33;;;;;;;;;;4923773;29;20253;-79
2021/12/14 13:24:13;;;;;;;36.50;19.80;;;;;;;;;;4935964;29;20339;-79
2021/12/14 13:26:39;;;;;;;36.60;19.47;;;;;;;;;;4920910;29;20603;-79
2021/12/14 13:29:12;;;;;;;43.27;21.33;;;;;;;;;;4918930;29;20633;-80
2021/12/14 13:31:41;;;;;;;38.60;19.33;;;;;;;;;;4915587;29;20194;-79
2021/12/14 13:34:12;;;;;;;40.43;20.17;;;;;;;;;;4918607;29;20266;-79
2021/12/14 13:36:38;;;;;;;40.20;19.77;;;;;;;;;;4920141;29;20293;-79
2021/12/14 13:39:06;;;;;;;45.27;20.97;;;;;;;;;;4921877;29;20221;-79
2021/12/14 13:41:47;;;;;;;39.37;20.40;;;;;;;;;;4922745;29;20554;-79
2021/12/14 13:44:14;;;;;;;39.93;19.53;;;;;;;;;;4920540;29;20238;-76
2021/12/14 13:46:41;;;;;;;39.20;20.27;;;;;;;;;;4919545;29;20186;-80
2021/12/14 13:49:08;;;;;;;37.93;19.00;;;;;;;;;;4916286;29;20202;-78
2021/12/14 13:51:34;;;;;;;44.30;21.57;;;;;;;;;;4929991;29;20186;-79
2021/12/14 13:54:00;;;;;;;42.63;22.43;;;;;;;;;;4919615;29;20223;-76
2021/12/14 13:56:32;;;;;;;37.23;19.23;;;;;;;;;;4919529;29;20238;-77
2021/12/14 13:59:00;;;;;;;35.57;18.73;;;;;;;;;;4941337;29;20242;-78
2021/12/14 14:01:34;;;;;;;42.93;21.27;;;;;;;;;;4917609;29;20213;-76
2021/12/14 14:04:01;;;;;;;37.50;19.07;;;;;;;;;;4928711;28;20214;-76
2021/12/14 14:06:28;;;;;;;41.33;20.60;;;;;;;;;;4916569;29;20745;-78
2021/12/14 14:08:58;;;;;;;46.83;22.23;;;;;;;;;;4939092;28;20666;-78
2021/12/14 14:11:32;;;;;;;39.17;21.00;;;;;;;;;;4918993;29;20181;-76
2021/12/14 14:14:04;;;;;;;40.03;20.83;;;;;;;;;;4939633;28;20218;-76
2021/12/14 14:16:39;;;;;;;39.00;20.83;;;;;;;;;;4920183;29;20691;-76
2021/12/14 14:19:12;;;;;;;42.70;22.73;;;;;;;;;;4918957;29;20245;-75
2021/12/14 14:21:38;;;;;;;38.47;19.83;;;;;;;;;;4917467;29;20189;-75
2021/12/14 14:24:04;;;;;;;37.73;19.93;;;;;;;;;;4931198;29;20596;-75
2021/12/14 14:26:36;;;;;;;36.33;20.37;;;;;;;;;;4916749;29;20726;-75
2021/12/14 14:29:10;;;;;;;41.97;20.47;;;;;;;;;;4932165;29;20201;-75
2021/12/14 14:31:42;;;;;;;42.03;22.40;;;;;;;;;;4917522;29;20222;-76
2021/12/14 14:34:18;;;;;;;35.30;18.47;;;;;;;;;;4919617;29;20680;-75
2021/12/14 14:36:45;;;;;;;36.53;19.97;;;;;;;;;;4917497;29;20695;-76
2021/12/14 14:39:16;;;;;;;41.63;20.77;;;;;;;;;;4918360;29;20177;-75
2021/12/14 14:41:43;;;;;;;39.13;21.00;;;;;;;;;;4918643;29;20190;-75
2021/12/14 14:44:09;;;;;;;37.13;19.23;;;;;;;;;;4916953;29;20178;-75
2021/12/14 14:46:39;;;;;;;37.40;19.60;;;;;;;;;;4918169;29;20190;-76
2021/12/14 14:49:05;;;;;;;35.60;19.00;;;;;;;;;;4916890;29;20589;-75
2021/12/14 14:51:47;;;;;;;37.53;19.60;;;;;;;;;;4915379;29;20681;-76
2021/12/14 14:54:34;;;;;;;37.83;19.50;;;;;;;;;;4918222;29;20190;-75
2021/12/14 14:57:07;;;;;;;41.43;20.50;;;;;;;;;;4916576;29;20561;-75
2021/12/14 14:59:33;;;;;;;36.30;19.57;;;;;;;;;;4917005;29;20550;-75
2021/12/14 15:02:00;;;;;;;38.10;19.83;;;;;;;;;;4918516;29;20183;-75
2021/12/14 15:04:26;;;;;;;42.53;22.60;;;;;;;;;;4917689;29;20678;-75
2021/12/14 15:06:53;;;;;;;46.13;24.53;;;;;;;;;;4917681;29;20197;-75
2021/12/14 15:09:28;;;;;;;54.93;27.90;;;;;;;;;;4919919;29;20564;-75
2021/12/14 15:11:56;;;;;;;40.03;21.57;;;;;;;;;;4918724;29;20182;-75